Svartfoss — V2PR3 — position and weather

sailwx.info

Track history (hours):
 
Tides and Currents Weather Stations Pressure Air Temp Water Temp Dewpoint Dewpoint Depression Visibility Wind Speed Wind Dir Waves Ship Positions

Svartfoss

Last reported at 2014-Oct-30 04:33 UTC. Time now 2014-Oct-31 21:30 UTC.
Position N 69°38' E 018°57'.

Length 80 m; draft 5.6 m.

Type: Cargo ship. MMSI: 304882000.

Date/timePositionNaut miles runAvg speedWind from/ knotsBaromVisibWave heightAir tempDewpointWater temp
2014-Oct-30 04:33N 69°38' E 018°57'0 0.0
2014-Oct-30 03:33N 69°38' E 018°57'0 0.0
2014-Oct-30 02:33N 69°38' E 018°57'0 0.0
2014-Oct-30 01:33N 69°38' E 018°57'0 0.0
2014-Oct-30 00:33N 69°38' E 018°57'2 2.0
2014-Oct-29 23:33N 69°39' E 018°58'0 0.0
2014-Oct-29 22:33N 69°39' E 018°58'0 0.0
2014-Oct-29 21:33N 69°39' E 018°58'0 0.0
2014-Oct-29 20:33N 69°39' E 018°58'0 0.0
2014-Oct-29 19:33N 69°39' E 018°58'0 0.0
2014-Oct-29 18:33N 69°39' E 018°58'0 0.0
2014-Oct-29 17:33N 69°39' E 018°58'0 0.0
2014-Oct-29 16:33N 69°39' E 018°58'3 3.4
2014-Oct-29 15:33N 69°42' E 019°03'10213.9
2014-Oct-29 08:14N 70°37' E 023°17'8 9.5
2014-Oct-29 07:25N 70°38' E 023°40'0 0.0
2014-Oct-29 06:30N 70°38' E 023°40'2 1.7
2014-Oct-29 05:20N 70°40' E 023°40'0 0.0
2014-Oct-29 04:27N 70°40' E 023°40'  
2014-Oct-26 16:14N 70°40' E 023°40'0 0.0
2014-Oct-24 15:17N 70°40' E 023°40'0 0.0
2014-Oct-24 07:04N 70°40' E 023°40'0 0.0
2014-Oct-23 11:10N 70°40' E 023°40'0 0.0
2014-Oct-23 10:31N 70°40' E 023°40'0 0.0
2014-Oct-23 09:31N 70°40' E 023°40'0 0.0
2014-Oct-23 08:31N 70°40' E 023°40'0 0.0
2014-Oct-23 02:16N 70°40' E 023°40'0 0.0
2014-Oct-22 16:32N 70°40' E 023°40'0 0.0
2014-Oct-22 15:26N 70°40' E 023°40'0 0.0
2014-Oct-22 14:29N 70°40' E 023°40'0 0.0
2014-Oct-22 13:19N 70°40' E 023°40'0 0.0
2014-Oct-22 12:27N 70°40' E 023°40'0 0.0
2014-Oct-22 11:26N 70°40' E 023°40'0 0.0
2014-Oct-22 10:26N 70°40' E 023°40'0 0.0
2014-Oct-22 09:31N 70°40' E 023°40'0 0.0
2014-Oct-22 08:27N 70°40' E 023°40'0 0.0
2014-Oct-22 07:32N 70°40' E 023°40'2 2.0
2014-Oct-22 06:33N 70°38' E 023°40'0 0.0
2014-Oct-22 05:30N 70°38' E 023°40'0 0.0
2014-Oct-22 03:29N 70°38' E 023°40'0 0.0
2014-Oct-22 02:31N 70°38' E 023°40'0 0.0
2014-Oct-22 01:33N 70°38' E 023°40'0 0.0
2014-Oct-22 00:31N 70°38' E 023°40'0 0.1
2014-Oct-21 23:29N 70°38' E 023°40'0 0.0
2014-Oct-21 22:31N 70°38' E 023°40'5 5.0
2014-Oct-21 21:28N 70°38' E 023°24'107 9.0
2014-Oct-21 09:33N 69°40' E 019°00'1 1.1
2014-Oct-21 08:33N 69°39' E 018°58'0 0.0
2014-Oct-21 07:33N 69°39' E 018°58'0 0.0
2014-Oct-21 06:33N 69°39' E 018°58'0 0.0
2014-Oct-21 05:33N 69°39' E 018°58'0 0.0
2014-Oct-21 04:33N 69°39' E 018°58'1 1.2
2014-Oct-21 03:33N 69°38' E 018°57'  
Track history (hours):
 
Tides and Currents Weather Stations Pressure Air Temp Water Temp Dewpoint Dewpoint Depression Visibility Wind Speed Wind Dir Waves Ship Positions

Svartfoss

Last reported at 2014-Oct-30 04:33 UTC. Time now 2014-Oct-31 21:30 UTC.
Position N 69°38' E 018°57'.

Length 80 m; draft 5.6 m.

Type: Cargo ship. MMSI: 304882000.

Date/timePositionNaut miles runAvg speedWind from/ knotsBaromVisibWave heightAir tempDewpointWater temp
2014-Oct-30 04:33N 69°38' E 018°57'0 0.0
2014-Oct-30 03:33N 69°38' E 018°57'0 0.0
2014-Oct-30 02:33N 69°38' E 018°57'0 0.0
2014-Oct-30 01:33N 69°38' E 018°57'0 0.0
2014-Oct-30 00:33N 69°38' E 018°57'2 2.0
2014-Oct-29 23:33N 69°39' E 018°58'0 0.0
2014-Oct-29 22:33N 69°39' E 018°58'0 0.0
2014-Oct-29 21:33N 69°39' E 018°58'0 0.0
2014-Oct-29 20:33N 69°39' E 018°58'0 0.0
2014-Oct-29 19:33N 69°39' E 018°58'0 0.0
2014-Oct-29 18:33N 69°39' E 018°58'0 0.0
2014-Oct-29 17:33N 69°39' E 018°58'0 0.0
2014-Oct-29 16:33N 69°39' E 018°58'3 3.4
2014-Oct-29 15:33N 69°42' E 019°03'10213.9
2014-Oct-29 08:14N 70°37' E 023°17'8 9.5
2014-Oct-29 07:25N 70°38' E 023°40'0 0.0
2014-Oct-29 06:30N 70°38' E 023°40'2 1.7
2014-Oct-29 05:20N 70°40' E 023°40'0 0.0
2014-Oct-29 04:27N 70°40' E 023°40'  
2014-Oct-26 16:14N 70°40' E 023°40'0 0.0
2014-Oct-24 15:17N 70°40' E 023°40'0 0.0
2014-Oct-24 07:04N 70°40' E 023°40'0 0.0
2014-Oct-23 11:10N 70°40' E 023°40'0 0.0
2014-Oct-23 10:31N 70°40' E 023°40'0 0.0
2014-Oct-23 09:31N 70°40' E 023°40'0 0.0
2014-Oct-23 08:31N 70°40' E 023°40'0 0.0
2014-Oct-23 02:16N 70°40' E 023°40'0 0.0
2014-Oct-22 16:32N 70°40' E 023°40'0 0.0
2014-Oct-22 15:26N 70°40' E 023°40'0 0.0
2014-Oct-22 14:29N 70°40' E 023°40'0 0.0
2014-Oct-22 13:19N 70°40' E 023°40'0 0.0
2014-Oct-22 12:27N 70°40' E 023°40'0 0.0
2014-Oct-22 11:26N 70°40' E 023°40'0 0.0
2014-Oct-22 10:26N 70°40' E 023°40'0 0.0
2014-Oct-22 09:31N 70°40' E 023°40'0 0.0
2014-Oct-22 08:27N 70°40' E 023°40'0 0.0
2014-Oct-22 07:32N 70°40' E 023°40'2 2.0
2014-Oct-22 06:33N 70°38' E 023°40'0 0.0
2014-Oct-22 05:30N 70°38' E 023°40'0 0.0
2014-Oct-22 03:29N 70°38' E 023°40'0 0.0
2014-Oct-22 02:31N 70°38' E 023°40'0 0.0
2014-Oct-22 01:33N 70°38' E 023°40'0 0.0
2014-Oct-22 00:31N 70°38' E 023°40'0 0.1
2014-Oct-21 23:29N 70°38' E 023°40'0 0.0
2014-Oct-21 22:31N 70°38' E 023°40'5 5.0
2014-Oct-21 21:28N 70°38' E 023°24'107 9.0
2014-Oct-21 09:33N 69°40' E 019°00'1 1.1
2014-Oct-21 08:33N 69°39' E 018°58'0 0.0
2014-Oct-21 07:33N 69°39' E 018°58'0 0.0
2014-Oct-21 06:33N 69°39' E 018°58'0 0.0
2014-Oct-21 05:33N 69°39' E 018°58'0 0.0
2014-Oct-21 04:33N 69°39' E 018°58'1 1.2
2014-Oct-21 03:33N 69°38' E 018°57'  

Dump ship's entire track history